sensor_id;sensor_type;location;lat;lon;timestamp;P1;durP1;ratioP1;P2;durP2;ratioP2
13785;SDS011;47474;48.824;9.384;2022-09-03T00:01:34;1.30;;;1.20;;
13785;SDS011;47474;48.824;9.384;2022-09-03T00:04:04;1.23;;;1.13;;
13785;SDS011;47474;48.824;9.384;2022-09-03T00:06:37;1.55;;;1.13;;
13785;SDS011;47474;48.824;9.384;2022-09-03T00:09:08;3.58;;;1.50;;
13785;SDS011;47474;48.824;9.384;2022-09-03T00:11:39;3.08;;;1.50;;
13785;SDS011;47474;48.824;9.384;2022-09-03T00:14:13;2.35;;;1.50;;
13785;SDS011;47474;48.824;9.384;2022-09-03T00:16:44;1.42;;;1.20;;
13785;SDS011;47474;48.824;9.384;2022-09-03T00:19:22;1.70;;;1.60;;
13785;SDS011;47474;48.824;9.384;2022-09-03T00:21:52;1.50;;;1.40;;
13785;SDS011;47474;48.824;9.384;2022-09-03T00:24:22;2.38;;;1.52;;
13785;SDS011;47474;48.824;9.384;2022-09-03T00:26:51;1.67;;;1.55;;
13785;SDS011;47474;48.824;9.384;2022-09-03T00:29:27;1.58;;;1.48;;
13785;SDS011;47474;48.824;9.384;2022-09-03T00:32:01;1.60;;;1.50;;
13785;SDS011;47474;48.824;9.384;2022-09-03T00:34:40;1.42;;;1.33;;
13785;SDS011;47474;48.824;9.384;2022-09-03T00:37:12;1.30;;;1.20;;
13785;SDS011;47474;48.824;9.384;2022-09-03T00:39:39;1.83;;;1.38;;
13785;SDS011;47474;48.824;9.384;2022-09-03T00:42:10;1.48;;;1.38;;
13785;SDS011;47474;48.824;9.384;2022-09-03T00:44:48;3.00;;;1.40;;
13785;SDS011;47474;48.824;9.384;2022-09-03T00:47:26;1.40;;;1.30;;
13785;SDS011;47474;48.824;9.384;2022-09-03T00:50:00;3.50;;;1.33;;
13785;SDS011;47474;48.824;9.384;2022-09-03T00:52:35;2.53;;;1.25;;
13785;SDS011;47474;48.824;9.384;2022-09-03T00:55:07;1.52;;;1.40;;
13785;SDS011;47474;48.824;9.384;2022-09-03T00:57:44;4.30;;;1.45;;
13785;SDS011;47474;48.824;9.384;2022-09-03T01:00:23;1.60;;;1.50;;
13785;SDS011;47474;48.824;9.384;2022-09-03T01:03:00;1.67;;;1.33;;
13785;SDS011;47474;48.824;9.384;2022-09-03T01:05:43;1.55;;;1.20;;
13785;SDS011;47474;48.824;9.384;2022-09-03T01:08:28;1.65;;;1.20;;
13785;SDS011;47474;48.824;9.384;2022-09-03T01:11:02;1.30;;;1.20;;
13785;SDS011;47474;48.824;9.384;2022-09-03T01:13:36;4.25;;;1.35;;
13785;SDS011;47474;48.824;9.384;2022-09-03T01:16:08;1.48;;;1.38;;
13785;SDS011;47474;48.824;9.384;2022-09-03T01:18:41;1.33;;;1.23;;
13785;SDS011;47474;48.824;9.384;2022-09-03T01:21:16;1.15;;;1.05;;
13785;SDS011;47474;48.824;9.384;2022-09-03T01:24:05;1.45;;;1.35;;
13785;SDS011;47474;48.824;9.384;2022-09-03T01:26:55;1.38;;;1.20;;
13785;SDS011;47474;48.824;9.384;2022-09-03T01:29:32;1.38;;;1.10;;
13785;SDS011;47474;48.824;9.384;2022-09-03T01:32:03;2.30;;;1.40;;
13785;SDS011;47474;48.824;9.384;2022-09-03T01:34:36;1.40;;;1.30;;
13785;SDS011;47474;48.824;9.384;2022-09-03T01:37:12;1.40;;;1.30;;
13785;SDS011;47474;48.824;9.384;2022-09-03T01:39:43;2.83;;;1.45;;
13785;SDS011;47474;48.824;9.384;2022-09-03T01:42:18;3.03;;;1.30;;
13785;SDS011;47474;48.824;9.384;2022-09-03T01:45:05;1.30;;;1.20;;
13785;SDS011;47474;48.824;9.384;2022-09-03T01:47:46;1.50;;;1.30;;
13785;SDS011;47474;48.824;9.384;2022-09-03T01:50:22;1.52;;;1.33;;
13785;SDS011;47474;48.824;9.384;2022-09-03T01:53:01;1.67;;;1.40;;
13785;SDS011;47474;48.824;9.384;2022-09-03T01:55:31;1.42;;;1.33;;
13785;SDS011;47474;48.824;9.384;2022-09-03T01:57:59;1.95;;;1.40;;
13785;SDS011;47474;48.824;9.384;2022-09-03T02:00:32;2.17;;;1.40;;
13785;SDS011;47474;48.824;9.384;2022-09-03T02:03:00;3.45;;;1.52;;
13785;SDS011;47474;48.824;9.384;2022-09-03T02:05:31;1.55;;;1.40;;
13785;SDS011;47474;48.824;9.384;2022-09-03T02:08:04;1.45;;;1.27;;
13785;SDS011;47474;48.824;9.384;2022-09-03T02:10:33;1.88;;;1.50;;
13785;SDS011;47474;48.824;9.384;2022-09-03T02:13:04;2.20;;;1.60;;
13785;SDS011;47474;48.824;9.384;2022-09-03T02:15:35;1.73;;;1.50;;
13785;SDS011;47474;48.824;9.384;2022-09-03T02:18:06;1.08;;;0.98;;
13785;SDS011;47474;48.824;9.384;2022-09-03T02:20:36;2.70;;;1.45;;
13785;SDS011;47474;48.824;9.384;2022-09-03T02:23:03;1.42;;;1.33;;
13785;SDS011;47474;48.824;9.384;2022-09-03T02:25:32;2.63;;;1.30;;
13785;SDS011;47474;48.824;9.384;2022-09-03T02:28:02;1.50;;;1.40;;
13785;SDS011;47474;48.824;9.384;2022-09-03T02:30:36;1.20;;;1.10;;
13785;SDS011;47474;48.824;9.384;2022-09-03T02:33:02;2.40;;;1.58;;
13785;SDS011;47474;48.824;9.384;2022-09-03T02:35:29;2.13;;;1.35;;
13785;SDS011;47474;48.824;9.384;2022-09-03T02:37:56;1.50;;;1.40;;
13785;SDS011;47474;48.824;9.384;2022-09-03T02:40:22;1.73;;;1.30;;
13785;SDS011;47474;48.824;9.384;2022-09-03T02:42:59;3.25;;;1.45;;
13785;SDS011;47474;48.824;9.384;2022-09-03T02:45:42;1.40;;;1.30;;
13785;SDS011;47474;48.824;9.384;2022-09-03T02:48:11;1.98;;;1.65;;
13785;SDS011;47474;48.824;9.384;2022-09-03T02:50:42;1.45;;;1.35;;
13785;SDS011;47474;48.824;9.384;2022-09-03T02:53:11;1.30;;;1.20;;
13785;SDS011;47474;48.824;9.384;2022-09-03T02:55:38;1.67;;;1.50;;
13785;SDS011;47474;48.824;9.384;2022-09-03T02:58:05;1.40;;;1.30;;
13785;SDS011;47474;48.824;9.384;2022-09-03T03:00:32;1.50;;;1.40;;
13785;SDS011;47474;48.824;9.384;2022-09-03T03:03:01;1.50;;;1.40;;
13785;SDS011;47474;48.824;9.384;2022-09-03T03:05:29;1.40;;;1.20;;
13785;SDS011;47474;48.824;9.384;2022-09-03T03:08:00;2.08;;;1.20;;
13785;SDS011;47474;48.824;9.384;2022-09-03T03:10:27;1.40;;;1.30;;
13785;SDS011;47474;48.824;9.384;2022-09-03T03:12:53;1.58;;;1.45;;
13785;SDS011;47474;48.824;9.384;2022-09-03T03:15:23;1.30;;;1.20;;
13785;SDS011;47474;48.824;9.384;2022-09-03T03:17:49;2.13;;;1.75;;
13785;SDS011;47474;48.824;9.384;2022-09-03T03:20:17;1.73;;;1.35;;
13785;SDS011;47474;48.824;9.384;2022-09-03T03:22:44;2.00;;;1.60;;
13785;SDS011;47474;48.824;9.384;2022-09-03T03:25:11;1.60;;;1.40;;
13785;SDS011;47474;48.824;9.384;2022-09-03T03:27:38;1.40;;;1.30;;
13785;SDS011;47474;48.824;9.384;2022-09-03T03:30:06;2.20;;;1.50;;
13785;SDS011;47474;48.824;9.384;2022-09-03T03:32:34;1.50;;;1.10;;
13785;SDS011;47474;48.824;9.384;2022-09-03T03:35:00;1.67;;;1.55;;
13785;SDS011;47474;48.824;9.384;2022-09-03T03:37:29;1.38;;;1.25;;
13785;SDS011;47474;48.824;9.384;2022-09-03T03:39:55;2.67;;;1.35;;
13785;SDS011;47474;48.824;9.384;2022-09-03T03:42:25;1.92;;;1.52;;
13785;SDS011;47474;48.824;9.384;2022-09-03T03:44:51;2.00;;;1.42;;
13785;SDS011;47474;48.824;9.384;2022-09-03T03:47:18;3.10;;;1.50;;
13785;SDS011;47474;48.824;9.384;2022-09-03T03:49:46;1.92;;;1.40;;
13785;SDS011;47474;48.824;9.384;2022-09-03T03:52:18;1.65;;;1.25;;
13785;SDS011;47474;48.824;9.384;2022-09-03T03:54:46;2.05;;;1.38;;
13785;SDS011;47474;48.824;9.384;2022-09-03T03:57:14;1.73;;;1.60;;
13785;SDS011;47474;48.824;9.384;2022-09-03T03:59:40;2.78;;;1.70;;
13785;SDS011;47474;48.824;9.384;2022-09-03T04:02:07;1.67;;;1.48;;
13785;SDS011;47474;48.824;9.384;2022-09-03T04:04:34;2.17;;;1.42;;
13785;SDS011;47474;48.824;9.384;2022-09-03T04:07:01;1.77;;;1.50;;
13785;SDS011;47474;48.824;9.384;2022-09-03T04:09:27;2.10;;;1.40;;
13785;SDS011;47474;48.824;9.384;2022-09-03T04:11:55;2.03;;;1.40;;
13785;SDS011;47474;48.824;9.384;2022-09-03T04:14:29;1.42;;;1.33;;
13785;SDS011;47474;48.824;9.384;2022-09-03T04:16:56;1.70;;;1.60;;
13785;SDS011;47474;48.824;9.384;2022-09-03T04:19:23;4.05;;;1.38;;
13785;SDS011;47474;48.824;9.384;2022-09-03T04:21:50;2.72;;;1.70;;
13785;SDS011;47474;48.824;9.384;2022-09-03T04:24:16;2.85;;;2.13;;
13785;SDS011;47474;48.824;9.384;2022-09-03T04:26:43;1.45;;;1.35;;
13785;SDS011;47474;48.824;9.384;2022-09-03T04:29:12;2.72;;;1.50;;
13785;SDS011;47474;48.824;9.384;2022-09-03T04:31:39;1.83;;;1.50;;
13785;SDS011;47474;48.824;9.384;2022-09-03T04:34:26;1.60;;;1.50;;
13785;SDS011;47474;48.824;9.384;2022-09-03T04:36:52;2.47;;;1.52;;
13785;SDS011;47474;48.824;9.384;2022-09-03T04:39:18;1.65;;;1.55;;
13785;SDS011;47474;48.824;9.384;2022-09-03T04:41:45;1.70;;;1.60;;
13785;SDS011;47474;48.824;9.384;2022-09-03T04:44:13;1.83;;;1.73;;
13785;SDS011;47474;48.824;9.384;2022-09-03T04:46:40;3.20;;;1.60;;
13785;SDS011;47474;48.824;9.384;2022-09-03T04:49:07;2.28;;;1.55;;
13785;SDS011;47474;48.824;9.384;2022-09-03T04:51:34;1.35;;;1.20;;
13785;SDS011;47474;48.824;9.384;2022-09-03T04:54:02;1.60;;;1.50;;
13785;SDS011;47474;48.824;9.384;2022-09-03T04:56:30;1.60;;;1.50;;
13785;SDS011;47474;48.824;9.384;2022-09-03T04:58:58;1.70;;;1.58;;
13785;SDS011;47474;48.824;9.384;2022-09-03T05:01:27;2.35;;;1.63;;
13785;SDS011;47474;48.824;9.384;2022-09-03T05:03:54;1.98;;;1.80;;
13785;SDS011;47474;48.824;9.384;2022-09-03T05:06:22;4.13;;;1.85;;
13785;SDS011;47474;48.824;9.384;2022-09-03T05:08:49;1.48;;;1.33;;
13785;SDS011;47474;48.824;9.384;2022-09-03T05:11:17;1.80;;;1.70;;
13785;SDS011;47474;48.824;9.384;2022-09-03T05:13:46;1.38;;;1.27;;
13785;SDS011;47474;48.824;9.384;2022-09-03T05:16:13;1.55;;;1.42;;
13785;SDS011;47474;48.824;9.384;2022-09-03T05:18:41;1.90;;;1.67;;
13785;SDS011;47474;48.824;9.384;2022-09-03T05:21:10;2.15;;;1.40;;
13785;SDS011;47474;48.824;9.384;2022-09-03T05:23:38;1.40;;;1.30;;
13785;SDS011;47474;48.824;9.384;2022-09-03T05:26:07;1.85;;;1.75;;
13785;SDS011;47474;48.824;9.384;2022-09-03T05:28:35;2.13;;;1.85;;
13785;SDS011;47474;48.824;9.384;2022-09-03T05:31:03;2.80;;;1.60;;
13785;SDS011;47474;48.824;9.384;2022-09-03T05:33:32;1.60;;;1.50;;
13785;SDS011;47474;48.824;9.384;2022-09-03T05:36:01;2.38;;;1.60;;
13785;SDS011;47474;48.824;9.384;2022-09-03T05:38:28;2.70;;;1.67;;
13785;SDS011;47474;48.824;9.384;2022-09-03T05:40:56;2.08;;;1.40;;
13785;SDS011;47474;48.824;9.384;2022-09-03T05:43:23;2.28;;;1.90;;
13785;SDS011;47474;48.824;9.384;2022-09-03T05:45:50;1.50;;;1.40;;
13785;SDS011;47474;48.824;9.384;2022-09-03T05:48:16;1.95;;;1.50;;
13785;SDS011;47474;48.824;9.384;2022-09-03T05:50:43;1.70;;;1.60;;
13785;SDS011;47474;48.824;9.384;2022-09-03T05:53:11;2.17;;;1.60;;
13785;SDS011;47474;48.824;9.384;2022-09-03T05:55:37;2.78;;;1.75;;
13785;SDS011;47474;48.824;9.384;2022-09-03T05:58:04;2.85;;;1.88;;
13785;SDS011;47474;48.824;9.384;2022-09-03T06:00:31;1.67;;;1.55;;
13785;SDS011;47474;48.824;9.384;2022-09-03T06:02:57;3.17;;;2.03;;
13785;SDS011;47474;48.824;9.384;2022-09-03T06:05:24;2.63;;;1.92;;
13785;SDS011;47474;48.824;9.384;2022-09-03T06:07:50;1.83;;;1.60;;
13785;SDS011;47474;48.824;9.384;2022-09-03T06:10:18;1.77;;;1.65;;
13785;SDS011;47474;48.824;9.384;2022-09-03T06:12:45;2.13;;;1.85;;
13785;SDS011;47474;48.824;9.384;2022-09-03T06:15:16;2.88;;;1.70;;
13785;SDS011;47474;48.824;9.384;2022-09-03T06:17:42;2.55;;;1.30;;
13785;SDS011;47474;48.824;9.384;2022-09-03T06:20:09;1.70;;;1.58;;
13785;SDS011;47474;48.824;9.384;2022-09-03T06:22:36;2.13;;;1.92;;
13785;SDS011;47474;48.824;9.384;2022-09-03T06:25:02;1.88;;;1.58;;
13785;SDS011;47474;48.824;9.384;2022-09-03T06:27:31;2.20;;;1.90;;
13785;SDS011;47474;48.824;9.384;2022-09-03T06:29:57;1.70;;;1.60;;
13785;SDS011;47474;48.824;9.384;2022-09-03T06:32:24;2.10;;;1.75;;
13785;SDS011;47474;48.824;9.384;2022-09-03T06:34:51;2.85;;;2.40;;
13785;SDS011;47474;48.824;9.384;2022-09-03T06:37:17;2.90;;;2.20;;
13785;SDS011;47474;48.824;9.384;2022-09-03T06:39:44;2.72;;;2.30;;
13785;SDS011;47474;48.824;9.384;2022-09-03T06:42:10;1.83;;;1.70;;
13785;SDS011;47474;48.824;9.384;2022-09-03T06:44:38;1.95;;;1.63;;
13785;SDS011;47474;48.824;9.384;2022-09-03T06:47:05;2.00;;;1.80;;
13785;SDS011;47474;48.824;9.384;2022-09-03T06:49:32;1.70;;;1.60;;
13785;SDS011;47474;48.824;9.384;2022-09-03T06:51:58;2.13;;;1.92;;
13785;SDS011;47474;48.824;9.384;2022-09-03T06:54:25;2.78;;;1.80;;
13785;SDS011;47474;48.824;9.384;2022-09-03T06:56:51;4.30;;;1.60;;
13785;SDS011;47474;48.824;9.384;2022-09-03T06:59:18;1.90;;;1.77;;
13785;SDS011;47474;48.824;9.384;2022-09-03T07:01:46;2.30;;;1.80;;
13785;SDS011;47474;48.824;9.384;2022-09-03T07:04:13;1.90;;;1.50;;
13785;SDS011;47474;48.824;9.384;2022-09-03T07:06:41;1.85;;;1.67;;
13785;SDS011;47474;48.824;9.384;2022-09-03T07:09:08;2.05;;;1.85;;
13785;SDS011;47474;48.824;9.384;2022-09-03T07:11:36;2.13;;;1.80;;
13785;SDS011;47474;48.824;9.384;2022-09-03T07:14:10;1.90;;;1.80;;
13785;SDS011;47474;48.824;9.384;2022-09-03T07:16:37;4.60;;;1.85;;
13785;SDS011;47474;48.824;9.384;2022-09-03T07:19:07;1.92;;;1.70;;
13785;SDS011;47474;48.824;9.384;2022-09-03T07:21:34;2.22;;;1.90;;
13785;SDS011;47474;48.824;9.384;2022-09-03T07:24:01;1.92;;;1.70;;
13785;SDS011;47474;48.824;9.384;2022-09-03T07:26:30;3.38;;;1.98;;
13785;SDS011;47474;48.824;9.384;2022-09-03T07:28:57;5.28;;;2.47;;
13785;SDS011;47474;48.824;9.384;2022-09-03T07:31:25;3.80;;;1.88;;
13785;SDS011;47474;48.824;9.384;2022-09-03T07:33:53;1.85;;;1.70;;
13785;SDS011;47474;48.824;9.384;2022-09-03T07:36:22;1.90;;;1.80;;
13785;SDS011;47474;48.824;9.384;2022-09-03T07:38:50;2.53;;;2.10;;
13785;SDS011;47474;48.824;9.384;2022-09-03T07:41:19;3.17;;;2.17;;
13785;SDS011;47474;48.824;9.384;2022-09-03T07:43:47;3.45;;;2.40;;
13785;SDS011;47474;48.824;9.384;2022-09-03T07:46:14;2.10;;;1.90;;
13785;SDS011;47474;48.824;9.384;2022-09-03T07:48:45;2.75;;;2.05;;
13785;SDS011;47474;48.824;9.384;2022-09-03T07:51:13;2.83;;;2.10;;
13785;SDS011;47474;48.824;9.384;2022-09-03T07:53:41;3.75;;;2.28;;
13785;SDS011;47474;48.824;9.384;2022-09-03T07:56:08;2.00;;;1.80;;
13785;SDS011;47474;48.824;9.384;2022-09-03T07:58:35;3.05;;;2.03;;
13785;SDS011;47474;48.824;9.384;2022-09-03T08:01:03;4.40;;;1.85;;
13785;SDS011;47474;48.824;9.384;2022-09-03T08:03:30;2.00;;;1.80;;
13785;SDS011;47474;48.824;9.384;2022-09-03T08:05:59;2.80;;;1.85;;
13785;SDS011;47474;48.824;9.384;2022-09-03T08:08:26;2.63;;;1.75;;
13785;SDS011;47474;48.824;9.384;2022-09-03T08:10:54;3.05;;;2.15;;
13785;SDS011;47474;48.824;9.384;2022-09-03T08:13:22;2.22;;;1.98;;
13785;SDS011;47474;48.824;9.384;2022-09-03T08:15:52;2.35;;;1.80;;
13785;SDS011;47474;48.824;9.384;2022-09-03T08:18:19;2.05;;;1.85;;
13785;SDS011;47474;48.824;9.384;2022-09-03T08:20:46;2.67;;;1.50;;
13785;SDS011;47474;48.824;9.384;2022-09-03T08:23:13;1.92;;;1.83;;
13785;SDS011;47474;48.824;9.384;2022-09-03T08:25:40;2.00;;;1.80;;
13785;SDS011;47474;48.824;9.384;2022-09-03T08:28:08;2.15;;;1.95;;
13785;SDS011;47474;48.824;9.384;2022-09-03T08:30:35;2.80;;;1.92;;
13785;SDS011;47474;48.824;9.384;2022-09-03T08:33:01;3.80;;;2.15;;
13785;SDS011;47474;48.824;9.384;2022-09-03T08:35:28;1.85;;;1.75;;
13785;SDS011;47474;48.824;9.384;2022-09-03T08:37:58;2.95;;;1.70;;
13785;SDS011;47474;48.824;9.384;2022-09-03T08:40:29;1.70;;;1.55;;
13785;SDS011;47474;48.824;9.384;2022-09-03T08:43:01;3.10;;;2.22;;
13785;SDS011;47474;48.824;9.384;2022-09-03T08:45:34;3.03;;;2.10;;
13785;SDS011;47474;48.824;9.384;2022-09-03T08:48:04;2.13;;;1.92;;
13785;SDS011;47474;48.824;9.384;2022-09-03T08:50:36;2.17;;;2.03;;
13785;SDS011;47474;48.824;9.384;2022-09-03T08:53:06;2.28;;;1.98;;
13785;SDS011;47474;48.824;9.384;2022-09-03T08:55:38;2.13;;;1.80;;
13785;SDS011;47474;48.824;9.384;2022-09-03T08:58:10;3.15;;;2.03;;
13785;SDS011;47474;48.824;9.384;2022-09-03T09:00:41;2.10;;;1.90;;
13785;SDS011;47474;48.824;9.384;2022-09-03T09:03:22;2.08;;;1.67;;
13785;SDS011;47474;48.824;9.384;2022-09-03T09:05:59;3.50;;;2.47;;
13785;SDS011;47474;48.824;9.384;2022-09-03T09:08:32;3.70;;;2.20;;
13785;SDS011;47474;48.824;9.384;2022-09-03T09:11:03;2.08;;;1.70;;
13785;SDS011;47474;48.824;9.384;2022-09-03T09:13:37;1.88;;;1.77;;
13785;SDS011;47474;48.824;9.384;2022-09-03T09:16:11;2.38;;;2.17;;
13785;SDS011;47474;48.824;9.384;2022-09-03T09:18:46;2.00;;;1.80;;
13785;SDS011;47474;48.824;9.384;2022-09-03T09:21:22;2.20;;;2.00;;
13785;SDS011;47474;48.824;9.384;2022-09-03T09:23:53;2.15;;;1.95;;
13785;SDS011;47474;48.824;9.384;2022-09-03T09:26:23;3.65;;;2.13;;
13785;SDS011;47474;48.824;9.384;2022-09-03T09:28:51;3.20;;;2.03;;
13785;SDS011;47474;48.824;9.384;2022-09-03T09:31:21;2.40;;;2.20;;
13785;SDS011;47474;48.824;9.384;2022-09-03T09:33:47;2.80;;;2.60;;
13785;SDS011;47474;48.824;9.384;2022-09-03T09:36:16;2.28;;;2.08;;
13785;SDS011;47474;48.824;9.384;2022-09-03T09:38:44;2.10;;;1.90;;
13785;SDS011;47474;48.824;9.384;2022-09-03T09:41:13;2.55;;;2.05;;
13785;SDS011;47474;48.824;9.384;2022-09-03T09:43:40;2.58;;;2.30;;
13785;SDS011;47474;48.824;9.384;2022-09-03T09:46:11;3.60;;;2.47;;
13785;SDS011;47474;48.824;9.384;2022-09-03T09:48:42;4.72;;;2.53;;
13785;SDS011;47474;48.824;9.384;2022-09-03T09:51:17;2.10;;;1.90;;
13785;SDS011;47474;48.824;9.384;2022-09-03T09:53:44;2.60;;;2.40;;
13785;SDS011;47474;48.824;9.384;2022-09-03T09:56:19;3.78;;;2.58;;
13785;SDS011;47474;48.824;9.384;2022-09-03T09:58:46;3.28;;;2.63;;
13785;SDS011;47474;48.824;9.384;2022-09-03T10:01:14;4.07;;;2.70;;
13785;SDS011;47474;48.824;9.384;2022-09-03T10:03:48;2.45;;;2.25;;
13785;SDS011;47474;48.824;9.384;2022-09-03T10:06:21;3.85;;;2.50;;
13785;SDS011;47474;48.824;9.384;2022-09-03T10:09:06;2.50;;;2.30;;
13785;SDS011;47474;48.824;9.384;2022-09-03T10:11:34;2.75;;;2.42;;
13785;SDS011;47474;48.824;9.384;2022-09-03T10:14:04;3.22;;;2.47;;
13785;SDS011;47474;48.824;9.384;2022-09-03T10:16:36;2.88;;;2.30;;
13785;SDS011;47474;48.824;9.384;2022-09-03T10:19:08;5.00;;;2.67;;
13785;SDS011;47474;48.824;9.384;2022-09-03T10:21:40;2.80;;;2.33;;
13785;SDS011;47474;48.824;9.384;2022-09-03T10:24:14;4.80;;;2.28;;
13785;SDS011;47474;48.824;9.384;2022-09-03T10:26:52;2.35;;;2.15;;
13785;SDS011;47474;48.824;9.384;2022-09-03T10:29:20;2.13;;;1.92;;
13785;SDS011;47474;48.824;9.384;2022-09-03T10:31:53;2.22;;;2.03;;
13785;SDS011;47474;48.824;9.384;2022-09-03T10:34:28;3.95;;;2.22;;
13785;SDS011;47474;48.824;9.384;2022-09-03T10:37:01;2.67;;;2.42;;
13785;SDS011;47474;48.824;9.384;2022-09-03T10:39:39;3.05;;;2.33;;
13785;SDS011;47474;48.824;9.384;2022-09-03T10:42:19;3.00;;;2.38;;
13785;SDS011;47474;48.824;9.384;2022-09-03T10:44:58;3.20;;;2.53;;
13785;SDS011;47474;48.824;9.384;2022-09-03T10:47:34;3.20;;;2.38;;
13785;SDS011;47474;48.824;9.384;2022-09-03T10:50:11;2.95;;;2.67;;
13785;SDS011;47474;48.824;9.384;2022-09-03T10:52:54;2.35;;;2.15;;
13785;SDS011;47474;48.824;9.384;2022-09-03T10:55:34;2.30;;;2.10;;
13785;SDS011;47474;48.824;9.384;2022-09-03T10:58:08;2.60;;;2.40;;
13785;SDS011;47474;48.824;9.384;2022-09-03T11:00:45;6.10;;;2.50;;
13785;SDS011;47474;48.824;9.384;2022-09-03T11:03:27;3.25;;;2.40;;
13785;SDS011;47474;48.824;9.384;2022-09-03T11:06:06;3.20;;;2.35;;
13785;SDS011;47474;48.824;9.384;2022-09-03T11:08:35;3.40;;;2.20;;
13785;SDS011;47474;48.824;9.384;2022-09-03T11:11:08;3.47;;;2.00;;
13785;SDS011;47474;48.824;9.384;2022-09-03T11:13:38;2.55;;;2.35;;
13785;SDS011;47474;48.824;9.384;2022-09-03T11:16:07;2.53;;;2.33;;
13785;SDS011;47474;48.824;9.384;2022-09-03T11:18:41;3.00;;;2.67;;
13785;SDS011;47474;48.824;9.384;2022-09-03T11:21:12;3.15;;;2.42;;
13785;SDS011;47474;48.824;9.384;2022-09-03T11:23:57;2.75;;;2.42;;
13785;SDS011;47474;48.824;9.384;2022-09-03T11:26:31;3.40;;;2.08;;
13785;SDS011;47474;48.824;9.384;2022-09-03T11:29:00;2.47;;;2.28;;
13785;SDS011;47474;48.824;9.384;2022-09-03T11:31:32;3.10;;;2.63;;
13785;SDS011;47474;48.824;9.384;2022-09-03T11:34:13;2.40;;;2.20;;
13785;SDS011;47474;48.824;9.384;2022-09-03T11:36:42;2.30;;;2.10;;
13785;SDS011;47474;48.824;9.384;2022-09-03T11:39:13;3.53;;;2.45;;
13785;SDS011;47474;48.824;9.384;2022-09-03T11:41:44;2.50;;;2.25;;
13785;SDS011;47474;48.824;9.384;2022-09-03T11:44:22;2.50;;;2.30;;
13785;SDS011;47474;48.824;9.384;2022-09-03T11:46:52;2.90;;;2.50;;
13785;SDS011;47474;48.824;9.384;2022-09-03T11:49:24;2.60;;;2.40;;
13785;SDS011;47474;48.824;9.384;2022-09-03T11:51:59;2.88;;;2.42;;
13785;SDS011;47474;48.824;9.384;2022-09-03T11:54:26;3.00;;;2.67;;
13785;SDS011;47474;48.824;9.384;2022-09-03T11:57:04;2.47;;;2.28;;
13785;SDS011;47474;48.824;9.384;2022-09-03T11:59:35;2.67;;;2.45;;
13785;SDS011;47474;48.824;9.384;2022-09-03T12:02:03;2.55;;;2.35;;
13785;SDS011;47474;48.824;9.384;2022-09-03T12:04:37;4.63;;;2.33;;
13785;SDS011;47474;48.824;9.384;2022-09-03T12:07:30;2.60;;;2.40;;
13785;SDS011;47474;48.824;9.384;2022-09-03T12:10:12;2.63;;;2.15;;
13785;SDS011;47474;48.824;9.384;2022-09-03T12:12:58;4.18;;;2.67;;
13785;SDS011;47474;48.824;9.384;2022-09-03T12:15:35;2.53;;;2.33;;
13785;SDS011;47474;48.824;9.384;2022-09-03T12:18:20;2.47;;;2.28;;
13785;SDS011;47474;48.824;9.384;2022-09-03T12:20:58;2.65;;;2.10;;
13785;SDS011;47474;48.824;9.384;2022-09-03T12:23:28;2.50;;;2.22;;
13785;SDS011;47474;48.824;9.384;2022-09-03T12:25:57;2.30;;;2.10;;
13785;SDS011;47474;48.824;9.384;2022-09-03T12:28:25;2.15;;;1.95;;
13785;SDS011;47474;48.824;9.384;2022-09-03T12:31:04;3.42;;;3.13;;
13785;SDS011;47474;48.824;9.384;2022-09-03T12:33:32;3.05;;;2.60;;
13785;SDS011;47474;48.824;9.384;2022-09-03T12:36:00;2.65;;;2.45;;
13785;SDS011;47474;48.824;9.384;2022-09-03T12:38:31;3.25;;;2.30;;
13785;SDS011;47474;48.824;9.384;2022-09-03T12:40:59;3.20;;;2.70;;
13785;SDS011;47474;48.824;9.384;2022-09-03T12:43:26;3.22;;;2.58;;
13785;SDS011;47474;48.824;9.384;2022-09-03T12:45:54;2.08;;;1.90;;
13785;SDS011;47474;48.824;9.384;2022-09-03T12:48:21;2.72;;;1.60;;
13785;SDS011;47474;48.824;9.384;2022-09-03T12:50:48;1.42;;;1.33;;
13785;SDS011;47474;48.824;9.384;2022-09-03T12:53:25;1.60;;;1.50;;
13785;SDS011;47474;48.824;9.384;2022-09-03T12:55:55;1.30;;;1.20;;
13785;SDS011;47474;48.824;9.384;2022-09-03T12:58:25;1.20;;;1.10;;
13785;SDS011;47474;48.824;9.384;2022-09-03T13:00:56;1.40;;;1.23;;
13785;SDS011;47474;48.824;9.384;2022-09-03T13:03:26;1.10;;;1.00;;
13785;SDS011;47474;48.824;9.384;2022-09-03T13:05:56;2.50;;;1.20;;
13785;SDS011;47474;48.824;9.384;2022-09-03T13:08:26;1.58;;;1.10;;
13785;SDS011;47474;48.824;9.384;2022-09-03T13:10:57;1.90;;;1.20;;
13785;SDS011;47474;48.824;9.384;2022-09-03T13:13:27;1.67;;;1.30;;
13785;SDS011;47474;48.824;9.384;2022-09-03T13:15:59;1.45;;;1.20;;
13785;SDS011;47474;48.824;9.384;2022-09-03T13:18:32;3.10;;;1.35;;
13785;SDS011;47474;48.824;9.384;2022-09-03T13:21:07;1.55;;;1.20;;
13785;SDS011;47474;48.824;9.384;2022-09-03T13:23:49;1.38;;;1.05;;
13785;SDS011;47474;48.824;9.384;2022-09-03T13:26:23;1.85;;;1.20;;
13785;SDS011;47474;48.824;9.384;2022-09-03T13:29:00;1.23;;;1.13;;
13785;SDS011;47474;48.824;9.384;2022-09-03T13:31:55;2.63;;;1.30;;
13785;SDS011;47474;48.824;9.384;2022-09-03T13:34:28;1.30;;;1.20;;
13785;SDS011;47474;48.824;9.384;2022-09-03T13:36:58;1.63;;;1.10;;
13785;SDS011;47474;48.824;9.384;2022-09-03T13:39:32;1.50;;;1.40;;
13785;SDS011;47474;48.824;9.384;2022-09-03T13:42:08;1.55;;;1.45;;
13785;SDS011;47474;48.824;9.384;2022-09-03T13:44:40;2.45;;;1.40;;
13785;SDS011;47474;48.824;9.384;2022-09-03T13:47:09;4.13;;;1.38;;
13785;SDS011;47474;48.824;9.384;2022-09-03T13:49:39;1.52;;;1.40;;
13785;SDS011;47474;48.824;9.384;2022-09-03T13:52:26;1.90;;;1.30;;
13785;SDS011;47474;48.824;9.384;2022-09-03T13:55:06;1.40;;;1.30;;
13785;SDS011;47474;48.824;9.384;2022-09-03T13:57:38;1.88;;;1.40;;
13785;SDS011;47474;48.824;9.384;2022-09-03T14:00:11;3.55;;;2.40;;
13785;SDS011;47474;48.824;9.384;2022-09-03T14:02:44;1.63;;;1.52;;
13785;SDS011;47474;48.824;9.384;2022-09-03T14:05:15;2.05;;;1.70;;
13785;SDS011;47474;48.824;9.384;2022-09-03T14:07:52;2.95;;;1.50;;
13785;SDS011;47474;48.824;9.384;2022-09-03T14:10:26;2.20;;;1.60;;
13785;SDS011;47474;48.824;9.384;2022-09-03T14:13:03;2.22;;;1.70;;
13785;SDS011;47474;48.824;9.384;2022-09-03T14:15:34;1.30;;;1.20;;
13785;SDS011;47474;48.824;9.384;2022-09-03T14:18:07;1.98;;;1.52;;
13785;SDS011;47474;48.824;9.384;2022-09-03T14:20:39;2.15;;;1.65;;
13785;SDS011;47474;48.824;9.384;2022-09-03T14:23:09;6.13;;;1.80;;
13785;SDS011;47474;48.824;9.384;2022-09-03T14:25:51;1.67;;;1.58;;
13785;SDS011;47474;48.824;9.384;2022-09-03T14:28:28;1.65;;;1.55;;
13785;SDS011;47474;48.824;9.384;2022-09-03T14:31:00;4.57;;;2.00;;
13785;SDS011;47474;48.824;9.384;2022-09-03T14:33:35;5.13;;;1.80;;
13785;SDS011;47474;48.824;9.384;2022-09-03T14:36:07;1.40;;;1.30;;
13785;SDS011;47474;48.824;9.384;2022-09-03T14:38:45;1.55;;;1.45;;
13785;SDS011;47474;48.824;9.384;2022-09-03T14:44:25;1.63;;;1.50;;
13785;SDS011;47474;48.824;9.384;2022-09-03T14:46:59;1.95;;;1.70;;
13785;SDS011;47474;48.824;9.384;2022-09-03T14:52:39;1.20;;;1.10;;
13785;SDS011;47474;48.824;9.384;2022-09-03T14:55:21;2.22;;;1.33;;
13785;SDS011;47474;48.824;9.384;2022-09-03T14:58:07;1.45;;;1.17;;
13785;SDS011;47474;48.824;9.384;2022-09-03T15:00:44;1.30;;;1.17;;
13785;SDS011;47474;48.824;9.384;2022-09-03T15:06:31;2.13;;;1.17;;
13785;SDS011;47474;48.824;9.384;2022-09-03T15:11:54;1.75;;;1.50;;
13785;SDS011;47474;48.824;9.384;2022-09-03T15:14:26;1.17;;;1.08;;
13785;SDS011;47474;48.824;9.384;2022-09-03T15:16:59;1.10;;;1.00;;
13785;SDS011;47474;48.824;9.384;2022-09-03T15:19:47;1.25;;;1.15;;
13785;SDS011;47474;48.824;9.384;2022-09-03T15:22:26;2.28;;;1.25;;
13785;SDS011;47474;48.824;9.384;2022-09-03T15:25:03;1.52;;;1.40;;